Time;durP1;ratioP1;P1;durP2;ratioP2;P2;SDS_P1;SDS_P2;PMS_P1;PMS_P2;Temp;Humidity;BMP_temperature;BMP_pressure;BME280_temperature;BME280_humidity;BME280_pressure;Samples;Min_cycle;Max_cycle;Signal;HPM_P1;HPM_P2
2023/08/12 00:02:30;;;;;;;15.82;5.03;;;;;;;;;;4959229;28;20109;-92
2023/08/12 00:04:56;;;;;;;16.60;4.38;;;;;;;;;;4974379;28;20034;-93
2023/08/12 00:07:22;;;;;;;13.27;4.47;;;;;;;;;;4962220;28;20039;-93
2023/08/12 00:09:50;;;;;;;14.13;5.35;;;;;;;;;;4961122;28;20029;-93
2023/08/12 00:12:16;;;;;;;9.77;4.50;;;;;;;;;;4962879;28;20094;-93
2023/08/12 00:14:45;;;;;;;12.05;3.80;;;;;;;;;;4949293;28;20032;-92
2023/08/12 00:17:11;;;;;;;16.67;4.43;;;;;;;;;;4959388;28;20030;-93
2023/08/12 00:19:37;;;;;;;9.73;3.65;;;;;;;;;;4957907;28;20027;-93
2023/08/12 00:22:04;;;;;;;8.35;3.58;;;;;;;;;;4957460;28;20055;-95
2023/08/12 00:24:30;;;;;;;17.50;3.95;;;;;;;;;;4956631;28;20035;-94
2023/08/12 00:26:56;;;;;;;10.45;2.78;;;;;;;;;;4947424;28;20050;-94
2023/08/12 00:29:22;;;;;;;8.43;2.85;;;;;;;;;;4969787;28;20034;-95
2023/08/12 00:31:48;;;;;;;7.75;2.40;;;;;;;;;;4950507;28;20034;-95
2023/08/12 00:34:14;;;;;;;7.40;2.75;;;;;;;;;;4944743;28;20039;-94
2023/08/12 00:36:40;;;;;;;7.63;2.75;;;;;;;;;;4957946;28;20093;-94
2023/08/12 00:39:07;;;;;;;5.57;2.58;;;;;;;;;;4958822;28;20067;-94
2023/08/12 00:41:33;;;;;;;8.45;2.35;;;;;;;;;;4945218;28;20050;-94
2023/08/12 00:43:59;;;;;;;5.18;1.98;;;;;;;;;;4954504;28;20039;-95
2023/08/12 00:46:48;;;;;;;8.60;2.30;;;;;;;;;;4945484;28;20126;-94
2023/08/12 00:49:14;;;;;;;7.60;2.47;;;;;;;;;;4950022;28;20039;-94
2023/08/12 00:51:46;;;;;;;10.18;2.20;;;;;;;;;;4945671;28;20042;-95
2023/08/12 00:54:14;;;;;;;6.82;2.50;;;;;;;;;;4962460;28;20054;-94
2023/08/12 00:56:41;;;;;;;13.88;2.45;;;;;;;;;;4959376;28;20022;-94
2023/08/12 00:59:11;;;;;;;4.00;2.17;;;;;;;;;;4944774;28;20035;-94
2023/08/12 01:01:51;;;;;;;7.72;2.72;;;;;;;;;;4957295;28;20057;-95
2023/08/12 01:04:17;;;;;;;5.78;2.40;;;;;;;;;;4942736;29;20087;-94
2023/08/12 01:06:53;;;;;;;4.95;2.55;;;;;;;;;;4917151;28;20072;-94
2023/08/12 01:09:19;;;;;;;4.78;2.22;;;;;;;;;;4928622;28;20047;-94
2023/08/12 01:11:51;;;;;;;9.70;3.47;;;;;;;;;;4933612;28;20127;-94
2023/08/12 01:14:25;;;;;;;9.57;2.92;;;;;;;;;;4938402;29;20038;-94
2023/08/12 01:16:54;;;;;;;11.73;2.90;;;;;;;;;;4943794;29;20034;-94
2023/08/12 01:19:40;;;;;;;4.93;2.72;;;;;;;;;;4947593;28;20042;-95
2023/08/12 01:22:08;;;;;;;12.35;2.92;;;;;;;;;;4935258;28;20040;-95
2023/08/12 01:24:42;;;;;;;5.63;2.72;;;;;;;;;;4943753;28;20027;-92
2023/08/12 01:27:09;;;;;;;8.57;2.60;;;;;;;;;;4918634;28;20036;-92
2023/08/12 01:29:38;;;;;;;5.60;3.50;;;;;;;;;;4950060;28;20505;-93
2023/08/12 01:32:08;;;;;;;7.60;3.10;;;;;;;;;;4941292;29;20043;-94
2023/08/12 01:34:44;;;;;;;7.35;3.00;;;;;;;;;;4942113;29;20495;-93
2023/08/12 01:37:12;;;;;;;8.00;3.30;;;;;;;;;;4933349;28;20714;-92
2023/08/12 01:39:39;;;;;;;7.82;3.45;;;;;;;;;;4946617;29;20036;-94
2023/08/12 01:42:05;;;;;;;7.05;3.60;;;;;;;;;;4926518;28;20495;-93
2023/08/12 01:44:32;;;;;;;10.10;3.40;;;;;;;;;;4939633;29;20151;-94
2023/08/12 01:47:01;;;;;;;9.10;3.55;;;;;;;;;;4926334;28;20051;-94
2023/08/12 01:49:27;;;;;;;5.50;2.88;;;;;;;;;;4927925;29;20461;-95
2023/08/12 01:51:53;;;;;;;11.48;3.75;;;;;;;;;;4940174;28;20935;-94
2023/08/12 01:54:19;;;;;;;10.23;4.00;;;;;;;;;;4923258;29;20043;-95
2023/08/12 01:56:45;;;;;;;16.58;4.95;;;;;;;;;;4920125;28;20079;-94
2023/08/12 01:59:12;;;;;;;7.10;4.13;;;;;;;;;;4928283;28;20554;-94
2023/08/12 02:01:39;;;;;;;11.15;4.30;;;;;;;;;;4939517;28;20750;-93
2023/08/12 02:04:08;;;;;;;16.80;4.30;;;;;;;;;;4964846;28;20034;-94
2023/08/12 02:06:34;;;;;;;11.38;4.47;;;;;;;;;;4965081;28;20069;-93
2023/08/12 02:09:00;;;;;;;14.63;3.95;;;;;;;;;;4964829;28;20074;-93
2023/08/12 02:11:26;;;;;;;13.93;4.30;;;;;;;;;;4962997;28;20065;-94
2023/08/12 02:13:58;;;;;;;10.25;4.68;;;;;;;;;;4967135;28;20031;-94
2023/08/12 02:16:24;;;;;;;7.38;4.15;;;;;;;;;;4962382;28;20031;-94
2023/08/12 02:18:50;;;;;;;14.02;4.07;;;;;;;;;;4962860;28;20039;-94
2023/08/12 02:21:17;;;;;;;12.70;4.57;;;;;;;;;;4961400;28;20034;-95
2023/08/12 02:23:44;;;;;;;8.85;3.35;;;;;;;;;;4960326;28;20039;-94
2023/08/12 02:26:10;;;;;;;11.00;4.10;;;;;;;;;;4966962;28;20090;-94
2023/08/12 02:28:36;;;;;;;11.65;4.50;;;;;;;;;;4965943;28;20129;-95
2023/08/12 02:31:02;;;;;;;13.70;5.35;;;;;;;;;;4961498;28;20053;-95
2023/08/12 02:33:32;;;;;;;11.45;4.97;;;;;;;;;;4962962;28;20041;-94
2023/08/12 02:35:58;;;;;;;10.82;5.43;;;;;;;;;;4964776;28;20031;-95
2023/08/12 02:38:24;;;;;;;9.52;5.47;;;;;;;;;;4967492;28;20049;-94
2023/08/12 02:40:50;;;;;;;14.13;5.38;;;;;;;;;;4978629;28;20093;-94
2023/08/12 02:46:03;;;;;;;13.88;5.13;;;;;;;;;;4967906;28;20039;-94
2023/08/12 02:48:38;;;;;;;12.07;5.80;;;;;;;;;;4961294;28;20039;-96
2023/08/12 02:51:07;;;;;;;12.90;5.85;;;;;;;;;;4969088;28;20101;-95
2023/08/12 02:53:33;;;;;;;9.38;4.95;;;;;;;;;;4956596;28;20486;-95
2023/08/12 02:56:00;;;;;;;11.55;5.50;;;;;;;;;;4963319;28;20375;-94
2023/08/12 02:58:26;;;;;;;10.63;5.88;;;;;;;;;;4975984;28;20048;-94
2023/08/12 03:00:52;;;;;;;12.40;5.72;;;;;;;;;;4960001;28;20059;-95
2023/08/12 03:03:18;;;;;;;12.90;5.00;;;;;;;;;;4957115;28;20728;-95
2023/08/12 03:05:47;;;;;;;15.25;6.30;;;;;;;;;;4965767;28;20479;-95
2023/08/12 03:08:13;;;;;;;11.45;5.65;;;;;;;;;;4980622;28;20026;-94
2023/08/12 03:10:39;;;;;;;16.73;6.32;;;;;;;;;;4963372;28;20046;-92
2023/08/12 03:13:05;;;;;;;13.23;5.80;;;;;;;;;;4966153;28;20034;-92
2023/08/12 03:15:31;;;;;;;10.13;5.60;;;;;;;;;;4964862;28;20034;-92
2023/08/12 03:17:57;;;;;;;16.42;6.78;;;;;;;;;;4958889;28;20443;-93
2023/08/12 03:20:27;;;;;;;15.07;6.03;;;;;;;;;;4978279;28;20026;-91
2023/08/12 03:22:55;;;;;;;15.60;6.68;;;;;;;;;;4976168;28;20042;-91
2023/08/12 03:25:22;;;;;;;13.23;6.18;;;;;;;;;;4956851;28;20583;-92
2023/08/12 03:27:48;;;;;;;15.40;5.93;;;;;;;;;;4963394;28;20030;-91
2023/08/12 03:30:16;;;;;;;11.65;5.90;;;;;;;;;;4975554;28;20080;-92
2023/08/12 03:32:42;;;;;;;13.13;6.18;;;;;;;;;;4974952;28;20049;-92
2023/08/12 03:35:08;;;;;;;16.52;6.50;;;;;;;;;;4976020;28;20066;-92
2023/08/12 03:37:34;;;;;;;10.98;6.55;;;;;;;;;;4959031;28;20041;-91
2023/08/12 03:40:01;;;;;;;13.68;6.22;;;;;;;;;;4960768;28;20294;-93
2023/08/12 03:42:27;;;;;;;9.27;5.43;;;;;;;;;;4961789;28;20105;-92
2023/08/12 03:44:53;;;;;;;12.52;6.00;;;;;;;;;;4962366;28;20465;-92
2023/08/12 03:47:21;;;;;;;13.85;6.55;;;;;;;;;;4962913;28;20089;-92
2023/08/12 03:49:48;;;;;;;12.55;6.47;;;;;;;;;;4963309;28;20632;-91
2023/08/12 03:52:14;;;;;;;13.25;6.20;;;;;;;;;;4969979;28;20058;-92
2023/08/12 03:54:40;;;;;;;11.45;6.53;;;;;;;;;;4956862;28;20038;-91
2023/08/12 03:57:06;;;;;;;11.07;6.32;;;;;;;;;;4964996;28;20053;-92
2023/08/12 03:59:33;;;;;;;16.90;6.80;;;;;;;;;;4982764;28;20038;-91
2023/08/12 04:01:59;;;;;;;14.88;6.40;;;;;;;;;;4966886;28;20093;-90
2023/08/12 04:04:25;;;;;;;13.23;6.53;;;;;;;;;;4966545;28;20043;-91
2023/08/12 04:06:52;;;;;;;12.45;5.78;;;;;;;;;;4964287;28;20046;-91
2023/08/12 04:09:21;;;;;;;17.13;6.88;;;;;;;;;;4968949;28;20030;-92
2023/08/12 04:11:48;;;;;;;15.93;6.78;;;;;;;;;;4984033;28;20493;-92
2023/08/12 04:14:17;;;;;;;14.27;6.82;;;;;;;;;;4983281;28;20042;-92
2023/08/12 04:16:43;;;;;;;12.43;6.55;;;;;;;;;;4979850;28;20030;-91
2023/08/12 04:19:15;;;;;;;16.85;6.78;;;;;;;;;;4960589;28;20039;-93
2023/08/12 04:21:46;;;;;;;12.35;7.35;;;;;;;;;;4964221;28;20557;-90
2023/08/12 04:24:12;;;;;;;11.60;6.75;;;;;;;;;;4963526;28;20033;-91
2023/08/12 04:26:41;;;;;;;16.85;7.55;;;;;;;;;;4973191;28;20301;-91
2023/08/12 04:29:07;;;;;;;12.70;6.57;;;;;;;;;;4961638;28;20046;-92
2023/08/12 04:31:36;;;;;;;14.27;7.20;;;;;;;;;;4962481;28;20090;-92
2023/08/12 04:34:03;;;;;;;17.65;6.93;;;;;;;;;;4978207;28;20325;-91
2023/08/12 04:36:30;;;;;;;18.52;7.97;;;;;;;;;;4984905;28;20059;-92
2023/08/12 04:38:56;;;;;;;17.10;7.90;;;;;;;;;;4983978;28;20122;-91
2023/08/12 04:41:23;;;;;;;20.85;10.02;;;;;;;;;;4970981;28;20046;-92
2023/08/12 04:43:50;;;;;;;20.35;9.05;;;;;;;;;;4961032;28;20042;-91
2023/08/12 04:46:16;;;;;;;21.10;8.90;;;;;;;;;;4962362;28;20031;-91
2023/08/12 04:48:43;;;;;;;16.58;9.38;;;;;;;;;;4961588;28;20121;-92
2023/08/12 04:51:10;;;;;;;16.80;9.30;;;;;;;;;;4980841;28;20029;-93
2023/08/12 04:53:36;;;;;;;20.67;8.93;;;;;;;;;;4960203;28;20130;-92
2023/08/12 04:56:02;;;;;;;12.45;8.15;;;;;;;;;;4964822;28;20035;-92
2023/08/12 04:58:28;;;;;;;20.80;8.90;;;;;;;;;;4964661;28;20042;-91
2023/08/12 05:00:56;;;;;;;19.88;8.57;;;;;;;;;;4977954;28;20034;-92
2023/08/12 05:03:22;;;;;;;17.75;8.45;;;;;;;;;;4966875;28;20065;-92
2023/08/12 05:05:52;;;;;;;23.27;9.40;;;;;;;;;;4974380;28;20026;-93
2023/08/12 05:08:18;;;;;;;15.73;7.80;;;;;;;;;;4975110;28;20037;-92
2023/08/12 05:10:44;;;;;;;22.20;9.98;;;;;;;;;;4964660;28;20033;-92
2023/08/12 05:13:10;;;;;;;14.52;7.25;;;;;;;;;;4958749;28;20052;-93
2023/08/12 05:15:36;;;;;;;14.13;7.32;;;;;;;;;;4963418;28;20098;-92
2023/08/12 05:18:03;;;;;;;17.85;8.32;;;;;;;;;;4966159;28;20049;-91
2023/08/12 05:20:29;;;;;;;19.35;9.65;;;;;;;;;;4968972;28;20513;-92
2023/08/12 05:22:55;;;;;;;14.55;7.95;;;;;;;;;;4961104;28;20113;-93
2023/08/12 05:25:21;;;;;;;12.52;7.57;;;;;;;;;;4960757;28;20023;-92
2023/08/12 05:27:47;;;;;;;15.98;7.45;;;;;;;;;;4961245;28;20035;-91
2023/08/12 05:30:13;;;;;;;16.00;7.40;;;;;;;;;;4965672;28;20042;-92
2023/08/12 05:32:40;;;;;;;23.80;8.52;;;;;;;;;;4978413;28;20032;-91
2023/08/12 05:35:06;;;;;;;18.02;8.23;;;;;;;;;;4972332;28;20094;-91
2023/08/12 05:37:32;;;;;;;17.40;7.85;;;;;;;;;;4987256;28;20040;-92
2023/08/12 05:40:03;;;;;;;15.50;7.55;;;;;;;;;;4974620;28;20038;-93
2023/08/12 05:42:29;;;;;;;20.15;8.23;;;;;;;;;;4980601;28;20038;-93
2023/08/12 05:44:55;;;;;;;13.13;7.35;;;;;;;;;;4988639;28;20018;-94
2023/08/12 05:47:21;;;;;;;12.52;7.03;;;;;;;;;;4973547;28;20600;-93
2023/08/12 05:49:47;;;;;;;15.50;7.20;;;;;;;;;;4989814;28;20031;-93
2023/08/12 05:52:16;;;;;;;23.25;8.88;;;;;;;;;;4969440;28;20148;-94
2023/08/12 05:54:42;;;;;;;12.65;6.50;;;;;;;;;;4966979;28;20054;-94
2023/08/12 05:57:08;;;;;;;20.50;7.90;;;;;;;;;;4969436;28;20036;-95
2023/08/12 05:59:36;;;;;;;14.68;7.55;;;;;;;;;;4968410;28;20053;-93
2023/08/12 06:02:14;;;;;;;15.65;7.47;;;;;;;;;;4965917;28;20597;-94
2023/08/12 06:04:41;;;;;;;16.50;7.50;;;;;;;;;;4979598;28;20038;-93
2023/08/12 06:07:07;;;;;;;19.83;8.23;;;;;;;;;;4983309;28;20035;-93
2023/08/12 06:09:33;;;;;;;20.55;8.45;;;;;;;;;;4964671;28;20053;-93
2023/08/12 06:11:59;;;;;;;15.48;7.93;;;;;;;;;;4964348;28;20034;-94
2023/08/12 06:14:25;;;;;;;13.43;7.80;;;;;;;;;;4955012;28;20065;-94
2023/08/12 06:16:51;;;;;;;17.67;7.47;;;;;;;;;;4966081;28;20483;-95
2023/08/12 06:19:17;;;;;;;13.93;7.68;;;;;;;;;;4959735;28;20042;-94
2023/08/12 06:21:43;;;;;;;16.70;7.82;;;;;;;;;;4962083;28;20049;-94
2023/08/12 06:24:17;;;;;;;17.90;7.95;;;;;;;;;;4958168;28;20046;-94
2023/08/12 06:26:43;;;;;;;23.05;8.27;;;;;;;;;;4962435;28;20467;-94
2023/08/12 06:29:09;;;;;;;18.75;8.23;;;;;;;;;;4957571;28;20034;-94
2023/08/12 06:31:35;;;;;;;16.67;9.20;;;;;;;;;;4962296;28;20482;-95
2023/08/12 06:34:01;;;;;;;19.17;9.20;;;;;;;;;;4963561;28;20038;-94
2023/08/12 06:36:27;;;;;;;15.45;8.15;;;;;;;;;;4954599;28;20039;-93
2023/08/12 06:38:53;;;;;;;21.48;8.98;;;;;;;;;;4961045;28;20035;-94
2023/08/12 06:41:19;;;;;;;19.23;8.95;;;;;;;;;;4977885;28;20065;-93
2023/08/12 06:43:46;;;;;;;17.33;8.40;;;;;;;;;;4976091;28;20058;-94
2023/08/12 06:46:16;;;;;;;21.45;8.95;;;;;;;;;;4963269;28;20041;-94
2023/08/12 06:48:42;;;;;;;18.65;8.45;;;;;;;;;;4956916;28;20058;-93
2023/08/12 06:51:11;;;;;;;18.52;9.20;;;;;;;;;;4992882;28;20027;-92
2023/08/12 06:53:41;;;;;;;15.18;8.15;;;;;;;;;;4965406;28;20034;-92
2023/08/12 06:56:07;;;;;;;18.90;8.77;;;;;;;;;;4967971;28;20030;-92
2023/08/12 06:58:36;;;;;;;11.63;8.00;;;;;;;;;;4980295;28;20434;-92
2023/08/12 07:01:02;;;;;;;24.05;8.57;;;;;;;;;;4963626;28;20042;-92
2023/08/12 07:03:40;;;;;;;24.20;8.60;;;;;;;;;;4956421;28;20055;-91
2023/08/12 07:06:06;;;;;;;16.90;8.25;;;;;;;;;;4983093;28;20168;-91
2023/08/12 07:08:33;;;;;;;17.58;8.80;;;;;;;;;;4977275;28;20058;-90
2023/08/12 07:10:59;;;;;;;19.42;8.73;;;;;;;;;;4964731;28;20030;-90
2023/08/12 07:13:26;;;;;;;18.27;9.15;;;;;;;;;;4982806;28;20043;-91
2023/08/12 07:15:54;;;;;;;18.05;8.88;;;;;;;;;;4976897;28;20046;-91
2023/08/12 07:18:20;;;;;;;19.02;9.43;;;;;;;;;;4960063;28;20101;-91
2023/08/12 07:20:46;;;;;;;17.73;9.32;;;;;;;;;;4964483;28;20039;-92
2023/08/12 07:23:12;;;;;;;28.23;9.68;;;;;;;;;;4978501;28;20057;-90
2023/08/12 07:25:39;;;;;;;20.80;9.45;;;;;;;;;;4962437;28;20396;-91
2023/08/12 07:28:08;;;;;;;22.95;9.60;;;;;;;;;;4968370;28;20030;-91
2023/08/12 07:30:36;;;;;;;18.85;9.48;;;;;;;;;;4967911;28;20037;-92
2023/08/12 07:33:02;;;;;;;22.33;9.90;;;;;;;;;;4993715;28;20033;-92
2023/08/12 07:35:29;;;;;;;17.65;9.98;;;;;;;;;;4973595;28;20031;-92
2023/08/12 07:37:55;;;;;;;23.45;9.93;;;;;;;;;;4967590;28;20044;-92
2023/08/12 07:40:22;;;;;;;19.00;9.73;;;;;;;;;;4961948;28;20122;-93
2023/08/12 07:42:49;;;;;;;19.73;9.50;;;;;;;;;;4963385;28;20070;-92
2023/08/12 07:45:15;;;;;;;25.42;11.13;;;;;;;;;;4959985;28;20038;-92
2023/08/12 07:47:41;;;;;;;18.80;10.20;;;;;;;;;;4978147;28;20030;-92
2023/08/12 07:50:07;;;;;;;24.95;10.23;;;;;;;;;;4958580;28;20027;-92
2023/08/12 07:52:34;;;;;;;23.52;9.98;;;;;;;;;;4975391;28;20027;-93
2023/08/12 07:55:06;;;;;;;21.02;8.90;;;;;;;;;;4964126;28;20050;-91
2023/08/12 07:57:33;;;;;;;25.83;11.43;;;;;;;;;;4974165;28;20390;-92
2023/08/12 07:59:59;;;;;;;27.50;11.57;;;;;;;;;;4963970;28;20116;-91
2023/08/12 08:02:25;;;;;;;20.75;10.52;;;;;;;;;;4960613;28;20026;-91
2023/08/12 08:04:52;;;;;;;18.95;10.93;;;;;;;;;;4979216;28;20034;-91
2023/08/12 08:07:18;;;;;;;19.33;10.80;;;;;;;;;;4966685;28;20062;-90
2023/08/12 08:09:45;;;;;;;22.60;10.25;;;;;;;;;;4978039;28;20022;-91
2023/08/12 08:12:11;;;;;;;18.95;10.32;;;;;;;;;;4968405;28;20454;-91
2023/08/12 08:14:38;;;;;;;30.58;11.18;;;;;;;;;;4989731;28;20031;-91
2023/08/12 08:17:04;;;;;;;23.55;11.55;;;;;;;;;;4971906;28;20583;-92
2023/08/12 08:19:30;;;;;;;22.55;10.70;;;;;;;;;;4972814;28;20185;-92
2023/08/12 08:21:58;;;;;;;34.53;11.88;;;;;;;;;;4972420;28;20035;-92
2023/08/12 08:27:13;;;;;;;24.55;9.82;;;;;;;;;;4971552;28;20044;-91
2023/08/12 08:29:39;;;;;;;26.65;11.00;;;;;;;;;;4961848;28;20102;-92
2023/08/12 08:32:11;;;;;;;24.05;11.02;;;;;;;;;;4976901;28;20529;-93
2023/08/12 08:34:37;;;;;;;18.73;10.48;;;;;;;;;;4981174;28;20067;-92
2023/08/12 08:37:03;;;;;;;25.88;11.02;;;;;;;;;;4965495;28;20035;-91
2023/08/12 08:39:29;;;;;;;19.35;10.52;;;;;;;;;;4961564;28;20058;-91
2023/08/12 08:41:56;;;;;;;27.08;10.65;;;;;;;;;;4970775;28;20026;-93
2023/08/12 08:44:23;;;;;;;27.35;10.63;;;;;;;;;;4985481;28;20068;-92
2023/08/12 08:46:53;;;;;;;22.02;10.63;;;;;;;;;;4977294;28;20215;-92
2023/08/12 08:49:21;;;;;;;22.25;11.13;;;;;;;;;;4997281;28;20045;-92
2023/08/12 08:51:48;;;;;;;31.95;11.57;;;;;;;;;;4995873;28;20042;-91
2023/08/12 08:54:14;;;;;;;27.83;11.40;;;;;;;;;;4984861;28;20041;-91
2023/08/12 08:56:40;;;;;;;20.65;11.43;;;;;;;;;;4999626;28;20041;-92
2023/08/12 08:59:07;;;;;;;27.05;11.13;;;;;;;;;;4984559;28;20026;-91
2023/08/12 09:01:33;;;;;;;18.20;11.30;;;;;;;;;;4988750;28;20106;-92
2023/08/12 09:03:59;;;;;;;29.45;11.82;;;;;;;;;;4973807;28;20039;-92
2023/08/12 09:06:27;;;;;;;27.90;12.20;;;;;;;;;;4965520;28;20035;-92
2023/08/12 09:08:53;;;;;;;25.08;13.35;;;;;;;;;;4954445;28;20024;-93
2023/08/12 09:11:20;;;;;;;22.85;11.52;;;;;;;;;;4979928;28;20066;-94
2023/08/12 09:13:46;;;;;;;29.55;12.95;;;;;;;;;;4964036;28;20078;-93
2023/08/12 09:16:15;;;;;;;29.85;15.40;;;;;;;;;;4972429;28;20042;-92
2023/08/12 09:18:45;;;;;;;36.28;15.05;;;;;;;;;;4957002;28;20035;-92
2023/08/12 09:21:12;;;;;;;40.88;15.18;;;;;;;;;;4971062;28;20049;-95
2023/08/12 09:23:40;;;;;;;42.75;14.65;;;;;;;;;;4966706;28;20388;-95
2023/08/12 09:26:17;;;;;;;38.58;16.73;;;;;;;;;;4949848;28;20026;-95
2023/08/12 09:28:46;;;;;;;47.38;18.40;;;;;;;;;;4969109;28;20050;-96
2023/08/12 09:31:24;;;;;;;37.40;16.17;;;;;;;;;;4949188;28;20395;-95
2023/08/12 09:33:50;;;;;;;38.60;16.10;;;;;;;;;;4976388;28;20030;-95
2023/08/12 09:36:17;;;;;;;31.65;14.98;;;;;;;;;;4961978;28;20049;-94
2023/08/12 09:38:53;;;;;;;39.50;15.95;;;;;;;;;;4976085;28;20042;-95
2023/08/12 09:41:24;;;;;;;32.70;15.43;;;;;;;;;;4958476;28;20054;-95
2023/08/12 09:44:03;;;;;;;35.35;17.65;;;;;;;;;;4971601;28;20118;-95
2023/08/12 09:46:29;;;;;;;28.55;16.77;;;;;;;;;;4948913;28;20493;-94
2023/08/12 09:48:58;;;;;;;42.25;17.83;;;;;;;;;;4945491;28;20037;-95
2023/08/12 09:51:25;;;;;;;32.42;16.20;;;;;;;;;;4947849;28;20038;-94
2023/08/12 09:53:55;;;;;;;37.22;18.15;;;;;;;;;;4955432;28;20519;-96
2023/08/12 09:56:42;;;;;;;39.22;18.88;;;;;;;;;;4952574;28;20042;-95
2023/08/12 09:59:08;;;;;;;39.63;17.38;;;;;;;;;;4955348;28;20034;-95
2023/08/12 10:01:35;;;;;;;43.45;17.73;;;;;;;;;;4959961;28;20030;-96
2023/08/12 10:04:21;;;;;;;37.60;18.35;;;;;;;;;;4953200;28;20054;-95
2023/08/12 10:06:48;;;;;;;31.58;17.20;;;;;;;;;;4965009;28;20027;-95
2023/08/12 10:09:15;;;;;;;39.35;19.52;;;;;;;;;;4972395;28;20034;-94
2023/08/12 10:11:43;;;;;;;35.70;17.88;;;;;;;;;;4971860;28;20033;-95
2023/08/12 10:14:10;;;;;;;30.92;16.15;;;;;;;;;;4967796;28;20058;-94
2023/08/12 10:16:45;;;;;;;33.88;16.92;;;;;;;;;;4968610;28;20031;-93
2023/08/12 10:19:25;;;;;;;31.80;14.57;;;;;;;;;;4964508;28;20038;-96
2023/08/12 10:21:57;;;;;;;35.15;14.70;;;;;;;;;;4979635;28;20031;-96
2023/08/12 10:35:08;;;;;;;23.63;11.45;;;;;;;;;;4968209;28;20012;-92
2023/08/12 10:37:35;;;;;;;27.20;12.07;;;;;;;;;;4948506;28;20041;-92
2023/08/12 10:40:08;;;;;;;26.63;12.65;;;;;;;;;;4936968;28;20030;-92
2023/08/12 10:42:47;;;;;;;27.10;12.07;;;;;;;;;;4952529;28;20035;-91
2023/08/12 10:45:14;;;;;;;28.65;12.48;;;;;;;;;;4944784;28;20030;-93
2023/08/12 10:47:49;;;;;;;21.55;10.93;;;;;;;;;;4928892;28;20092;-92
2023/08/12 10:50:19;;;;;;;23.47;10.40;;;;;;;;;;4966120;28;20517;-91
2023/08/12 10:52:46;;;;;;;14.35;8.80;;;;;;;;;;4952240;28;20019;-92
2023/08/12 10:55:25;;;;;;;18.13;8.75;;;;;;;;;;4930616;28;20114;-91
2023/08/12 10:57:55;;;;;;;16.52;9.20;;;;;;;;;;4965921;28;20026;-91
2023/08/12 11:00:26;;;;;;;17.20;8.38;;;;;;;;;;4931130;28;20066;-91
2023/08/12 11:02:56;;;;;;;14.50;7.38;;;;;;;;;;4950652;28;20109;-92
2023/08/12 11:05:23;;;;;;;10.13;5.35;;;;;;;;;;4949214;28;20121;-92
2023/08/12 11:07:58;;;;;;;19.45;5.65;;;;;;;;;;4945320;28;20538;-91
2023/08/12 11:10:25;;;;;;;9.18;4.35;;;;;;;;;;4965067;28;20101;-91
2023/08/12 11:12:54;;;;;;;6.20;2.90;;;;;;;;;;4949609;28;20034;-92
2023/08/12 11:15:29;;;;;;;4.97;2.92;;;;;;;;;;4947397;28;20383;-91
2023/08/12 11:17:55;;;;;;;5.70;3.25;;;;;;;;;;4946504;28;20027;-91
2023/08/12 11:20:21;;;;;;;6.60;3.33;;;;;;;;;;4945111;28;20089;-93
2023/08/12 11:22:48;;;;;;;11.00;3.85;;;;;;;;;;4949911;28;20042;-92
2023/08/12 11:25:14;;;;;;;7.90;4.00;;;;;;;;;;4963433;28;20039;-92
2023/08/12 11:27:48;;;;;;;8.80;4.40;;;;;;;;;;4965336;28;20062;-93
2023/08/12 11:30:16;;;;;;;10.93;3.53;;;;;;;;;;4933269;28;20061;-93
2023/08/12 11:32:53;;;;;;;9.52;4.10;;;;;;;;;;4949595;28;20046;-94
2023/08/12 11:35:20;;;;;;;8.38;3.83;;;;;;;;;;4949400;28;20055;-95
2023/08/12 11:37:48;;;;;;;9.02;3.58;;;;;;;;;;4947688;28;20062;-94
2023/08/12 11:40:27;;;;;;;6.90;4.47;;;;;;;;;;4968274;28;20027;-93
2023/08/12 11:42:56;;;;;;;8.43;4.20;;;;;;;;;;4937195;28;20601;-93
2023/08/12 11:45:26;;;;;;;8.50;3.30;;;;;;;;;;4949997;28;20531;-92
2023/08/12 11:47:53;;;;;;;5.50;3.55;;;;;;;;;;4950966;28;20058;-92
2023/08/12 11:50:21;;;;;;;10.80;4.05;;;;;;;;;;4950708;28;20070;-92
2023/08/12 11:52:51;;;;;;;11.68;3.45;;;;;;;;;;4952635;28;20031;-93
2023/08/12 11:55:18;;;;;;;6.65;3.40;;;;;;;;;;4932337;28;20043;-92
2023/08/12 11:57:47;;;;;;;3.38;2.28;;;;;;;;;;4954688;28;20455;-92
2023/08/12 12:00:14;;;;;;;3.65;1.60;;;;;;;;;;4940495;28;20111;-92
2023/08/12 12:02:54;;;;;;;2.30;1.42;;;;;;;;;;4934797;28;20057;-91
2023/08/12 12:05:29;;;;;;;1.42;1.00;;;;;;;;;;4952895;28;20027;-91
2023/08/12 12:07:55;;;;;;;0.77;0.77;;;;;;;;;;4955094;28;20058;-91
2023/08/12 12:10:27;;;;;;;4.47;1.65;;;;;;;;;;4944995;28;20030;-90
2023/08/12 12:12:58;;;;;;;3.72;2.17;;;;;;;;;;4950087;28;20600;-90
2023/08/12 12:15:25;;;;;;;7.03;2.40;;;;;;;;;;4960112;28;20031;-89
2023/08/12 12:17:51;;;;;;;5.68;2.30;;;;;;;;;;4947815;28;20034;-90
2023/08/12 12:20:18;;;;;;;4.25;2.40;;;;;;;;;;4970982;28;20027;-89
2023/08/12 12:22:45;;;;;;;7.68;2.10;;;;;;;;;;4953959;28;20031;-90
2023/08/12 12:25:12;;;;;;;8.13;3.25;;;;;;;;;;4949717;28;20031;-89
2023/08/12 12:27:39;;;;;;;7.95;2.50;;;;;;;;;;4949569;28;20467;-91
2023/08/12 12:30:09;;;;;;;10.27;3.15;;;;;;;;;;4936513;28;20050;-90
2023/08/12 12:32:46;;;;;;;11.20;2.63;;;;;;;;;;4953724;28;20023;-91
2023/08/12 12:35:12;;;;;;;7.35;2.40;;;;;;;;;;4919037;28;20051;-90
2023/08/12 12:37:38;;;;;;;9.50;3.60;;;;;;;;;;4919682;28;20547;-91
2023/08/12 12:40:05;;;;;;;8.98;2.30;;;;;;;;;;4916753;28;20035;-90
2023/08/12 12:42:31;;;;;;;10.85;2.53;;;;;;;;;;4937361;28;20069;-91
2023/08/12 12:44:58;;;;;;;11.45;3.63;;;;;;;;;;4929874;28;20098;-91
2023/08/12 12:47:27;;;;;;;9.30;3.08;;;;;;;;;;4935624;28;20054;-90
2023/08/12 12:49:55;;;;;;;10.85;2.83;;;;;;;;;;4935612;29;20027;-92
2023/08/12 12:52:21;;;;;;;7.07;3.30;;;;;;;;;;4948848;29;20035;-93
2023/08/12 12:54:49;;;;;;;10.90;3.35;;;;;;;;;;4918547;29;20045;-91
2023/08/12 12:57:19;;;;;;;9.60;2.92;;;;;;;;;;4944173;29;20027;-91
2023/08/12 12:59:45;;;;;;;8.63;2.97;;;;;;;;;;4919439;29;20047;-93
2023/08/12 13:02:12;;;;;;;12.35;2.88;;;;;;;;;;4937211;29;20035;-92
2023/08/12 13:04:38;;;;;;;10.48;2.58;;;;;;;;;;4922486;28;20066;-92
2023/08/12 13:07:04;;;;;;;6.82;2.78;;;;;;;;;;4922634;29;20039;-92
2023/08/12 13:09:31;;;;;;;11.77;2.63;;;;;;;;;;4935280;28;20027;-91
2023/08/12 13:12:04;;;;;;;7.38;2.97;;;;;;;;;;4916611;28;20059;-94
2023/08/12 13:14:30;;;;;;;9.45;3.33;;;;;;;;;;4920029;28;20040;-92
2023/08/12 13:16:56;;;;;;;7.78;2.60;;;;;;;;;;4916689;28;20035;-92
2023/08/12 13:19:22;;;;;;;4.47;2.30;;;;;;;;;;4917797;29;20047;-93
2023/08/12 13:21:49;;;;;;;9.77;2.38;;;;;;;;;;4936962;28;20118;-91
2023/08/12 13:24:15;;;;;;;11.77;3.05;;;;;;;;;;4952686;28;20484;-94
2023/08/12 13:26:41;;;;;;;5.85;2.58;;;;;;;;;;4922554;29;20035;-94
2023/08/12 13:29:07;;;;;;;10.13;3.13;;;;;;;;;;4925587;29;20043;-93
2023/08/12 13:31:33;;;;;;;11.23;2.47;;;;;;;;;;4922907;28;20027;-92
2023/08/12 13:34:00;;;;;;;10.45;3.00;;;;;;;;;;4936761;28;20065;-92
2023/08/12 13:36:26;;;;;;;13.23;2.65;;;;;;;;;;4921116;28;20641;-92
2023/08/12 13:38:52;;;;;;;8.68;2.50;;;;;;;;;;4931945;28;20202;-92
2023/08/12 13:41:20;;;;;;;7.70;2.85;;;;;;;;;;4947973;29;20392;-93
2023/08/12 13:44:10;;;;;;;;;;;;;;;;;;;;;
2023/08/12 13:47:00;;;;;;;5.63;2.67;;;;;;;;;;4939144;28;20103;-91
2023/08/12 13:49:29;;;;;;;8.77;2.33;;;;;;;;;;4951451;28;20042;-93
2023/08/12 13:52:05;;;;;;;9.50;3.35;;;;;;;;;;4932936;29;20042;-93
2023/08/12 13:54:31;;;;;;;;;;;;;;;;;;4967564;28;20022;-94
2023/08/12 13:57:00;;;;;;;6.63;2.28;;;;;;;;;;4948387;29;19914;-95
2023/08/12 13:59:35;;;;;;;9.70;2.95;;;;;;;;;;4956670;28;20028;-91
2023/08/12 14:02:04;;;;;;;7.40;2.78;;;;;;;;;;4935909;28;20174;-92
2023/08/12 14:04:30;;;;;;;12.98;3.42;;;;;;;;;;4950024;28;20065;-92
2023/08/12 14:06:56;;;;;;;15.00;3.47;;;;;;;;;;4925545;29;20042;-89
2023/08/12 14:09:25;;;;;;;9.02;2.85;;;;;;;;;;4921105;29;20038;-94
2023/08/12 14:11:51;;;;;;;7.88;2.92;;;;;;;;;;4934987;28;20118;-90
2023/08/12 14:14:17;;;;;;;9.07;3.08;;;;;;;;;;4918723;29;20066;-92
2023/08/12 14:16:47;;;;;;;8.40;3.20;;;;;;;;;;4917687;28;20531;-90
2023/08/12 14:19:16;;;;;;;7.13;2.97;;;;;;;;;;4932938;28;20822;-91
2023/08/12 14:21:42;;;;;;;8.07;2.60;;;;;;;;;;4920442;29;20027;-92
2023/08/12 14:24:08;;;;;;;12.88;5.30;;;;;;;;;;4923998;28;20049;-90
2023/08/12 14:26:35;;;;;;;6.78;2.25;;;;;;;;;;4914141;28;20446;-90
2023/08/12 14:29:02;;;;;;;7.35;2.17;;;;;;;;;;4919928;28;20032;-90
2023/08/12 14:31:28;;;;;;;7.10;2.28;;;;;;;;;;4934498;28;20384;-89
2023/08/12 14:33:56;;;;;;;14.15;4.00;;;;;;;;;;4939054;28;20741;-88
2023/08/12 14:36:23;;;;;;;8.75;2.30;;;;;;;;;;4970569;28;20031;-88
2023/08/12 14:38:50;;;;;;;7.35;2.17;;;;;;;;;;4957131;28;20035;-89
2023/08/12 14:41:18;;;;;;;9.02;1.92;;;;;;;;;;4940195;28;20069;-88
2023/08/12 14:43:44;;;;;;;5.07;2.00;;;;;;;;;;4954717;28;22687;-89
2023/08/12 14:46:10;;;;;;;9.70;2.20;;;;;;;;;;4934814;28;20311;-93
2023/08/12 14:48:40;;;;;;;6.40;1.95;;;;;;;;;;4935706;28;20027;-91
2023/08/12 14:51:10;;;;;;;7.53;2.08;;;;;;;;;;4943093;28;20039;-95
2023/08/12 14:53:36;;;;;;;8.15;1.92;;;;;;;;;;4971459;28;20034;-89
2023/08/12 14:56:03;;;;;;;7.93;2.30;;;;;;;;;;4940449;28;20066;-89